sensor_id;sensor_type;location;lat;lon;timestamp;temperature;humidity
939;DHT22;456;53.584;9.968;2023-11-21T00:00:55;17.60;35.70
939;DHT22;456;53.584;9.968;2023-11-21T00:03:21;17.60;35.60
939;DHT22;456;53.584;9.968;2023-11-21T00:05:49;17.60;35.70
939;DHT22;456;53.584;9.968;2023-11-21T00:08:14;17.60;35.70
939;DHT22;456;53.584;9.968;2023-11-21T00:10:40;17.60;35.60
939;DHT22;456;53.584;9.968;2023-11-21T00:13:05;17.60;35.70
939;DHT22;456;53.584;9.968;2023-11-21T00:15:31;17.60;35.60
939;DHT22;456;53.584;9.968;2023-11-21T00:17:56;17.60;35.60
939;DHT22;456;53.584;9.968;2023-11-21T00:20:22;17.60;35.60
939;DHT22;456;53.584;9.968;2023-11-21T00:22:48;17.60;35.70
939;DHT22;456;53.584;9.968;2023-11-21T00:25:13;17.60;35.60
939;DHT22;456;53.584;9.968;2023-11-21T00:27:41;17.60;35.70
939;DHT22;456;53.584;9.968;2023-11-21T00:30:06;17.60;35.70
939;DHT22;456;53.584;9.968;2023-11-21T00:32:35;17.60;35.60
939;DHT22;456;53.584;9.968;2023-11-21T00:35:01;17.60;35.70
939;DHT22;456;53.584;9.968;2023-11-21T00:37:27;17.60;35.60
939;DHT22;456;53.584;9.968;2023-11-21T00:39:52;17.60;35.70
939;DHT22;456;53.584;9.968;2023-11-21T00:42:18;17.60;35.70
939;DHT22;456;53.584;9.968;2023-11-21T00:44:43;17.60;35.70
939;DHT22;456;53.584;9.968;2023-11-21T00:47:09;17.60;35.60
939;DHT22;456;53.584;9.968;2023-11-21T00:49:34;17.60;35.70
939;DHT22;456;53.584;9.968;2023-11-21T00:52:00;17.60;35.70
939;DHT22;456;53.584;9.968;2023-11-21T00:54:27;17.60;35.70
939;DHT22;456;53.584;9.968;2023-11-21T00:56:52;17.60;35.60
939;DHT22;456;53.584;9.968;2023-11-21T00:59:18;17.60;35.60
939;DHT22;456;53.584;9.968;2023-11-21T01:01:43;17.60;35.70
939;DHT22;456;53.584;9.968;2023-11-21T01:04:09;17.60;35.60
939;DHT22;456;53.584;9.968;2023-11-21T01:06:35;17.60;35.60
939;DHT22;456;53.584;9.968;2023-11-21T01:09:01;17.60;35.70
939;DHT22;456;53.584;9.968;2023-11-21T01:11:26;17.60;35.70
939;DHT22;456;53.584;9.968;2023-11-21T01:13:52;17.60;35.60
939;DHT22;456;53.584;9.968;2023-11-21T01:16:18;17.60;35.70
939;DHT22;456;53.584;9.968;2023-11-21T01:18:44;17.60;35.60
939;DHT22;456;53.584;9.968;2023-11-21T01:21:10;17.50;35.60
939;DHT22;456;53.584;9.968;2023-11-21T01:23:35;17.60;35.70
939;DHT22;456;53.584;9.968;2023-11-21T01:26:01;17.50;35.60
939;DHT22;456;53.584;9.968;2023-11-21T01:28:26;17.50;35.60
939;DHT22;456;53.584;9.968;2023-11-21T01:30:52;17.50;35.60
939;DHT22;456;53.584;9.968;2023-11-21T01:33:22;17.50;35.60
939;DHT22;456;53.584;9.968;2023-11-21T01:35:47;17.50;35.70
939;DHT22;456;53.584;9.968;2023-11-21T01:38:13;17.50;35.60
939;DHT22;456;53.584;9.968;2023-11-21T01:40:40;17.50;35.50
939;DHT22;456;53.584;9.968;2023-11-21T01:43:06;17.50;35.50
939;DHT22;456;53.584;9.968;2023-11-21T01:45:31;17.50;35.50
939;DHT22;456;53.584;9.968;2023-11-21T01:47:59;17.50;35.50
939;DHT22;456;53.584;9.968;2023-11-21T01:50:26;17.50;35.50
939;DHT22;456;53.584;9.968;2023-11-21T01:52:52;17.50;35.50
939;DHT22;456;53.584;9.968;2023-11-21T01:55:18;17.50;35.50
939;DHT22;456;53.584;9.968;2023-11-21T01:57:45;17.50;35.50
939;DHT22;456;53.584;9.968;2023-11-21T02:00:12;17.50;35.50
939;DHT22;456;53.584;9.968;2023-11-21T02:02:48;17.50;35.50
939;DHT22;456;53.584;9.968;2023-11-21T02:05:18;17.50;35.40
939;DHT22;456;53.584;9.968;2023-11-21T02:07:44;17.50;35.50
939;DHT22;456;53.584;9.968;2023-11-21T02:10:10;17.50;35.40
939;DHT22;456;53.584;9.968;2023-11-21T02:12:40;17.50;35.40
939;DHT22;456;53.584;9.968;2023-11-21T02:15:06;17.50;35.40
939;DHT22;456;53.584;9.968;2023-11-21T02:17:43;17.50;35.40
939;DHT22;456;53.584;9.968;2023-11-21T02:20:28;17.50;35.40
939;DHT22;456;53.584;9.968;2023-11-21T02:22:56;17.50;35.40
939;DHT22;456;53.584;9.968;2023-11-21T02:25:29;17.50;35.40
939;DHT22;456;53.584;9.968;2023-11-21T02:27:59;17.50;35.30
939;DHT22;456;53.584;9.968;2023-11-21T02:30:25;17.50;35.30
939;DHT22;456;53.584;9.968;2023-11-21T02:32:51;17.50;35.30
939;DHT22;456;53.584;9.968;2023-11-21T02:35:20;17.50;35.40
939;DHT22;456;53.584;9.968;2023-11-21T02:37:47;17.50;35.30
939;DHT22;456;53.584;9.968;2023-11-21T02:40:12;17.50;35.20
939;DHT22;456;53.584;9.968;2023-11-21T02:42:41;17.50;35.30
939;DHT22;456;53.584;9.968;2023-11-21T02:45:07;17.50;35.20
939;DHT22;456;53.584;9.968;2023-11-21T02:47:33;17.50;35.20
939;DHT22;456;53.584;9.968;2023-11-21T02:49:59;17.50;35.20
939;DHT22;456;53.584;9.968;2023-11-21T02:52:25;17.50;35.20
939;DHT22;456;53.584;9.968;2023-11-21T02:54:50;17.50;35.20
939;DHT22;456;53.584;9.968;2023-11-21T02:57:16;17.50;35.10
939;DHT22;456;53.584;9.968;2023-11-21T02:59:42;17.40;35.00
939;DHT22;456;53.584;9.968;2023-11-21T03:02:08;17.50;35.10
939;DHT22;456;53.584;9.968;2023-11-21T03:04:34;17.40;34.90
939;DHT22;456;53.584;9.968;2023-11-21T03:07:00;17.40;34.90
939;DHT22;456;53.584;9.968;2023-11-21T03:09:26;17.40;34.90
939;DHT22;456;53.584;9.968;2023-11-21T03:11:52;17.40;34.90
939;DHT22;456;53.584;9.968;2023-11-21T03:14:18;17.40;34.90
939;DHT22;456;53.584;9.968;2023-11-21T03:16:43;17.40;34.90
939;DHT22;456;53.584;9.968;2023-11-21T03:19:11;17.40;34.90
939;DHT22;456;53.584;9.968;2023-11-21T03:21:36;17.40;35.30
939;DHT22;456;53.584;9.968;2023-11-21T03:24:02;17.40;34.80
939;DHT22;456;53.584;9.968;2023-11-21T03:26:28;17.40;34.80
939;DHT22;456;53.584;9.968;2023-11-21T03:28:55;17.40;34.70
939;DHT22;456;53.584;9.968;2023-11-21T03:31:21;17.40;34.70
939;DHT22;456;53.584;9.968;2023-11-21T03:33:46;17.40;34.70
939;DHT22;456;53.584;9.968;2023-11-21T03:36:13;17.40;34.80
939;DHT22;456;53.584;9.968;2023-11-21T03:38:40;17.40;34.70
939;DHT22;456;53.584;9.968;2023-11-21T03:41:06;17.40;34.70
939;DHT22;456;53.584;9.968;2023-11-21T03:43:31;17.40;34.70
939;DHT22;456;53.584;9.968;2023-11-21T03:45:57;17.40;34.50
939;DHT22;456;53.584;9.968;2023-11-21T03:48:22;17.40;34.70
939;DHT22;456;53.584;9.968;2023-11-21T03:50:48;17.40;34.80
939;DHT22;456;53.584;9.968;2023-11-21T03:53:14;17.40;34.60
939;DHT22;456;53.584;9.968;2023-11-21T03:55:39;17.40;34.50
939;DHT22;456;53.584;9.968;2023-11-21T03:58:05;17.40;34.30
939;DHT22;456;53.584;9.968;2023-11-21T04:00:31;17.40;34.50
939;DHT22;456;53.584;9.968;2023-11-21T04:02:56;17.40;34.50
939;DHT22;456;53.584;9.968;2023-11-21T04:05:23;17.40;34.60
939;DHT22;456;53.584;9.968;2023-11-21T04:07:51;17.40;34.30
939;DHT22;456;53.584;9.968;2023-11-21T04:10:18;17.40;34.30
939;DHT22;456;53.584;9.968;2023-11-21T04:12:43;17.40;34.30
939;DHT22;456;53.584;9.968;2023-11-21T04:15:10;17.40;34.30
939;DHT22;456;53.584;9.968;2023-11-21T04:17:35;17.40;34.10
939;DHT22;456;53.584;9.968;2023-11-21T04:20:03;17.40;34.20
939;DHT22;456;53.584;9.968;2023-11-21T04:22:33;17.40;34.20
939;DHT22;456;53.584;9.968;2023-11-21T04:24:59;17.50;34.40
939;DHT22;456;53.584;9.968;2023-11-21T04:27:24;17.50;34.40
939;DHT22;456;53.584;9.968;2023-11-21T04:29:50;17.60;34.60
939;DHT22;456;53.584;9.968;2023-11-21T04:32:16;17.60;34.50
939;DHT22;456;53.584;9.968;2023-11-21T04:34:41;17.60;34.40
939;DHT22;456;53.584;9.968;2023-11-21T04:37:07;17.70;34.40
939;DHT22;456;53.584;9.968;2023-11-21T04:39:32;17.70;34.50
939;DHT22;456;53.584;9.968;2023-11-21T04:41:58;17.80;34.50
939;DHT22;456;53.584;9.968;2023-11-21T04:44:23;17.80;34.50
939;DHT22;456;53.584;9.968;2023-11-21T04:46:49;17.90;34.50
939;DHT22;456;53.584;9.968;2023-11-21T04:49:14;17.90;34.50
939;DHT22;456;53.584;9.968;2023-11-21T04:51:40;17.90;34.40
939;DHT22;456;53.584;9.968;2023-11-21T04:54:06;17.90;34.40
939;DHT22;456;53.584;9.968;2023-11-21T04:56:31;17.90;34.40
939;DHT22;456;53.584;9.968;2023-11-21T04:58:57;17.90;34.40
939;DHT22;456;53.584;9.968;2023-11-21T05:01:22;18.00;34.50
939;DHT22;456;53.584;9.968;2023-11-21T05:03:48;18.00;34.50
939;DHT22;456;53.584;9.968;2023-11-21T05:06:14;17.90;34.40
939;DHT22;456;53.584;9.968;2023-11-21T05:08:40;17.90;34.40
939;DHT22;456;53.584;9.968;2023-11-21T05:11:06;18.00;34.40
939;DHT22;456;53.584;9.968;2023-11-21T05:13:36;17.90;34.30
939;DHT22;456;53.584;9.968;2023-11-21T05:16:02;17.90;34.30
939;DHT22;456;53.584;9.968;2023-11-21T05:18:31;17.90;34.30
939;DHT22;456;53.584;9.968;2023-11-21T05:20:57;17.90;34.20
939;DHT22;456;53.584;9.968;2023-11-21T05:23:23;17.90;34.20
939;DHT22;456;53.584;9.968;2023-11-21T05:25:48;17.90;34.20
939;DHT22;456;53.584;9.968;2023-11-21T05:28:14;17.90;34.20
939;DHT22;456;53.584;9.968;2023-11-21T05:30:39;17.90;34.20
939;DHT22;456;53.584;9.968;2023-11-21T05:33:05;17.90;34.20
939;DHT22;456;53.584;9.968;2023-11-21T05:35:31;17.90;34.20
939;DHT22;456;53.584;9.968;2023-11-21T05:37:57;17.90;34.10
939;DHT22;456;53.584;9.968;2023-11-21T05:40:22;17.90;34.00
939;DHT22;456;53.584;9.968;2023-11-21T05:42:48;17.90;34.00
939;DHT22;456;53.584;9.968;2023-11-21T05:45:14;17.90;33.90
939;DHT22;456;53.584;9.968;2023-11-21T05:47:42;17.90;33.90
939;DHT22;456;53.584;9.968;2023-11-21T05:50:10;17.90;33.80
939;DHT22;456;53.584;9.968;2023-11-21T05:52:40;17.90;33.80
939;DHT22;456;53.584;9.968;2023-11-21T05:55:06;17.90;33.90
939;DHT22;456;53.584;9.968;2023-11-21T05:57:35;17.90;33.80
939;DHT22;456;53.584;9.968;2023-11-21T06:00:06;17.90;33.90
939;DHT22;456;53.584;9.968;2023-11-21T06:02:52;17.90;33.80
939;DHT22;456;53.584;9.968;2023-11-21T06:05:23;17.90;33.80
939;DHT22;456;53.584;9.968;2023-11-21T06:07:49;18.00;33.90
939;DHT22;456;53.584;9.968;2023-11-21T06:10:15;18.00;33.90
939;DHT22;456;53.584;9.968;2023-11-21T06:12:43;18.00;33.90
939;DHT22;456;53.584;9.968;2023-11-21T06:15:10;18.00;33.90
939;DHT22;456;53.584;9.968;2023-11-21T06:17:38;18.00;33.90
939;DHT22;456;53.584;9.968;2023-11-21T06:20:05;18.00;33.90
939;DHT22;456;53.584;9.968;2023-11-21T06:22:47;18.00;33.90
939;DHT22;456;53.584;9.968;2023-11-21T06:25:13;18.00;33.90
939;DHT22;456;53.584;9.968;2023-11-21T06:27:44;18.00;34.00
939;DHT22;456;53.584;9.968;2023-11-21T06:30:10;18.00;33.90
939;DHT22;456;53.584;9.968;2023-11-21T06:32:37;18.00;33.90
939;DHT22;456;53.584;9.968;2023-11-21T06:35:04;18.00;33.90
939;DHT22;456;53.584;9.968;2023-11-21T06:37:30;18.00;33.90
939;DHT22;456;53.584;9.968;2023-11-21T06:39:57;18.00;33.90
939;DHT22;456;53.584;9.968;2023-11-21T06:42:24;18.00;33.80
939;DHT22;456;53.584;9.968;2023-11-21T06:44:50;18.00;33.90
939;DHT22;456;53.584;9.968;2023-11-21T06:47:36;18.00;33.90
939;DHT22;456;53.584;9.968;2023-11-21T06:50:01;18.00;33.90
939;DHT22;456;53.584;9.968;2023-11-21T06:52:27;18.00;33.80
939;DHT22;456;53.584;9.968;2023-11-21T06:54:53;18.00;33.80
939;DHT22;456;53.584;9.968;2023-11-21T06:57:18;18.00;33.80
939;DHT22;456;53.584;9.968;2023-11-21T06:59:44;18.00;33.90
939;DHT22;456;53.584;9.968;2023-11-21T07:02:10;18.00;33.90
939;DHT22;456;53.584;9.968;2023-11-21T07:04:36;18.00;33.90
939;DHT22;456;53.584;9.968;2023-11-21T07:07:06;18.00;33.90
939;DHT22;456;53.584;9.968;2023-11-21T07:09:32;18.00;33.90
939;DHT22;456;53.584;9.968;2023-11-21T07:11:58;18.00;33.90
939;DHT22;456;53.584;9.968;2023-11-21T07:14:23;18.00;33.90
939;DHT22;456;53.584;9.968;2023-11-21T07:16:49;18.00;33.90
939;DHT22;456;53.584;9.968;2023-11-21T07:19:15;18.00;34.00
939;DHT22;456;53.584;9.968;2023-11-21T07:21:40;18.00;33.90
939;DHT22;456;53.584;9.968;2023-11-21T07:24:07;18.00;34.00
939;DHT22;456;53.584;9.968;2023-11-21T07:26:33;17.90;33.90
939;DHT22;456;53.584;9.968;2023-11-21T07:29:00;17.90;33.60
939;DHT22;456;53.584;9.968;2023-11-21T07:31:26;17.90;33.80
939;DHT22;456;53.584;9.968;2023-11-21T07:33:52;17.90;33.80
939;DHT22;456;53.584;9.968;2023-11-21T07:36:19;17.90;33.80
939;DHT22;456;53.584;9.968;2023-11-21T07:38:46;17.90;33.90
939;DHT22;456;53.584;9.968;2023-11-21T07:41:12;17.90;33.80
939;DHT22;456;53.584;9.968;2023-11-21T07:43:41;17.90;33.80
939;DHT22;456;53.584;9.968;2023-11-21T07:46:07;17.90;33.90
939;DHT22;456;53.584;9.968;2023-11-21T07:48:34;17.90;33.90
939;DHT22;456;53.584;9.968;2023-11-21T07:51:01;17.90;33.90
939;DHT22;456;53.584;9.968;2023-11-21T07:53:27;17.90;33.90
939;DHT22;456;53.584;9.968;2023-11-21T07:55:56;17.90;33.90
939;DHT22;456;53.584;9.968;2023-11-21T07:58:22;17.90;33.90
939;DHT22;456;53.584;9.968;2023-11-21T08:00:49;17.90;33.90
939;DHT22;456;53.584;9.968;2023-11-21T08:03:15;17.90;34.00
939;DHT22;456;53.584;9.968;2023-11-21T08:05:41;17.80;33.90
939;DHT22;456;53.584;9.968;2023-11-21T08:08:07;17.80;33.80
939;DHT22;456;53.584;9.968;2023-11-21T08:10:33;17.80;34.00
939;DHT22;456;53.584;9.968;2023-11-21T08:12:59;17.80;34.00
939;DHT22;456;53.584;9.968;2023-11-21T08:15:24;17.80;34.00
939;DHT22;456;53.584;9.968;2023-11-21T08:17:50;17.80;34.00
939;DHT22;456;53.584;9.968;2023-11-21T08:20:16;17.80;34.00
939;DHT22;456;53.584;9.968;2023-11-21T08:22:44;17.80;34.00
939;DHT22;456;53.584;9.968;2023-11-21T08:25:10;17.80;34.00
939;DHT22;456;53.584;9.968;2023-11-21T08:27:35;17.80;34.00
939;DHT22;456;53.584;9.968;2023-11-21T08:30:02;17.80;33.90
939;DHT22;456;53.584;9.968;2023-11-21T08:32:28;17.80;34.00
939;DHT22;456;53.584;9.968;2023-11-21T08:34:55;17.70;33.80
939;DHT22;456;53.584;9.968;2023-11-21T08:37:21;17.70;33.70
939;DHT22;456;53.584;9.968;2023-11-21T08:39:47;17.70;33.70
939;DHT22;456;53.584;9.968;2023-11-21T08:42:14;17.70;32.40
939;DHT22;456;53.584;9.968;2023-11-21T08:44:40;17.70;32.80
939;DHT22;456;53.584;9.968;2023-11-21T08:47:06;17.70;33.20
939;DHT22;456;53.584;9.968;2023-11-21T08:49:32;17.70;34.20
939;DHT22;456;53.584;9.968;2023-11-21T08:51:58;17.70;33.70
939;DHT22;456;53.584;9.968;2023-11-21T08:54:25;17.70;33.60
939;DHT22;456;53.584;9.968;2023-11-21T08:56:54;17.70;33.50
939;DHT22;456;53.584;9.968;2023-11-21T08:59:20;17.80;33.60
939;DHT22;456;53.584;9.968;2023-11-21T09:01:47;17.80;33.60
939;DHT22;456;53.584;9.968;2023-11-21T09:04:12;17.80;33.60
939;DHT22;456;53.584;9.968;2023-11-21T09:06:39;17.80;33.60
939;DHT22;456;53.584;9.968;2023-11-21T09:09:05;17.80;33.50
939;DHT22;456;53.584;9.968;2023-11-21T09:11:32;17.80;33.50
939;DHT22;456;53.584;9.968;2023-11-21T09:13:59;17.80;33.40
939;DHT22;456;53.584;9.968;2023-11-21T09:16:25;17.80;33.40
939;DHT22;456;53.584;9.968;2023-11-21T09:18:50;17.80;33.40
939;DHT22;456;53.584;9.968;2023-11-21T09:21:16;17.80;33.40
939;DHT22;456;53.584;9.968;2023-11-21T09:23:46;17.80;33.50
939;DHT22;456;53.584;9.968;2023-11-21T09:26:11;17.80;33.40
939;DHT22;456;53.584;9.968;2023-11-21T09:28:37;17.80;33.40
939;DHT22;456;53.584;9.968;2023-11-21T09:31:04;17.80;33.40
939;DHT22;456;53.584;9.968;2023-11-21T09:33:30;17.80;33.40
939;DHT22;456;53.584;9.968;2023-11-21T09:35:57;17.80;33.40
939;DHT22;456;53.584;9.968;2023-11-21T09:38:23;17.80;33.40
939;DHT22;456;53.584;9.968;2023-11-21T09:40:49;17.80;33.40
939;DHT22;456;53.584;9.968;2023-11-21T09:43:18;17.80;33.40
939;DHT22;456;53.584;9.968;2023-11-21T09:45:54;17.80;33.40
939;DHT22;456;53.584;9.968;2023-11-21T09:48:20;17.80;33.40
939;DHT22;456;53.584;9.968;2023-11-21T09:50:47;17.80;33.40
939;DHT22;456;53.584;9.968;2023-11-21T09:53:20;17.80;33.40
939;DHT22;456;53.584;9.968;2023-11-21T09:55:48;17.80;33.40
939;DHT22;456;53.584;9.968;2023-11-21T09:58:16;17.80;33.40
939;DHT22;456;53.584;9.968;2023-11-21T10:00:44;17.80;33.40
939;DHT22;456;53.584;9.968;2023-11-21T10:03:10;17.80;33.40
939;DHT22;456;53.584;9.968;2023-11-21T10:05:37;17.80;33.30
939;DHT22;456;53.584;9.968;2023-11-21T10:08:10;17.70;33.30
939;DHT22;456;53.584;9.968;2023-11-21T10:10:37;17.80;33.20
939;DHT22;456;53.584;9.968;2023-11-21T10:13:04;17.80;33.40
939;DHT22;456;53.584;9.968;2023-11-21T10:15:34;17.80;33.30
939;DHT22;456;53.584;9.968;2023-11-21T10:18:05;17.80;33.30
939;DHT22;456;53.584;9.968;2023-11-21T10:20:33;17.70;33.10
939;DHT22;456;53.584;9.968;2023-11-21T10:22:59;17.70;33.90
939;DHT22;456;53.584;9.968;2023-11-21T10:25:27;17.70;33.10
939;DHT22;456;53.584;9.968;2023-11-21T10:27:58;17.70;33.10
939;DHT22;456;53.584;9.968;2023-11-21T10:30:36;17.70;33.10
939;DHT22;456;53.584;9.968;2023-11-21T10:33:03;17.70;33.00
939;DHT22;456;53.584;9.968;2023-11-21T10:35:49;17.70;33.00
939;DHT22;456;53.584;9.968;2023-11-21T10:38:23;17.70;33.10
939;DHT22;456;53.584;9.968;2023-11-21T10:40:50;17.70;33.00
939;DHT22;456;53.584;9.968;2023-11-21T10:43:16;17.70;33.00
939;DHT22;456;53.584;9.968;2023-11-21T10:45:42;17.70;33.00
939;DHT22;456;53.584;9.968;2023-11-21T10:48:14;17.70;32.90
939;DHT22;456;53.584;9.968;2023-11-21T10:50:44;17.70;32.90
939;DHT22;456;53.584;9.968;2023-11-21T10:53:10;17.70;33.00
939;DHT22;456;53.584;9.968;2023-11-21T10:55:37;17.70;33.00
939;DHT22;456;53.584;9.968;2023-11-21T10:58:04;17.60;32.90
939;DHT22;456;53.584;9.968;2023-11-21T11:00:34;17.60;33.00
939;DHT22;456;53.584;9.968;2023-11-21T11:03:00;17.60;33.10
939;DHT22;456;53.584;9.968;2023-11-21T11:05:27;17.60;32.90
939;DHT22;456;53.584;9.968;2023-11-21T11:08:05;17.60;32.90
939;DHT22;456;53.584;9.968;2023-11-21T11:10:31;17.50;32.70
939;DHT22;456;53.584;9.968;2023-11-21T11:12:58;17.50;32.60
939;DHT22;456;53.584;9.968;2023-11-21T11:15:27;17.50;32.10
939;DHT22;456;53.584;9.968;2023-11-21T11:17:54;17.60;32.30
939;DHT22;456;53.584;9.968;2023-11-21T11:20:24;17.60;32.30
939;DHT22;456;53.584;9.968;2023-11-21T11:28:29;17.60;32.20
939;DHT22;456;53.584;9.968;2023-11-21T11:31:13;17.60;32.20
939;DHT22;456;53.584;9.968;2023-11-21T11:33:57;17.60;32.20
939;DHT22;456;53.584;9.968;2023-11-21T11:36:50;17.60;32.30
939;DHT22;456;53.584;9.968;2023-11-21T11:41:53;17.60;32.20
939;DHT22;456;53.584;9.968;2023-11-21T11:52:51;17.60;32.10
939;DHT22;456;53.584;9.968;2023-11-21T11:55:19;17.60;32.20
939;DHT22;456;53.584;9.968;2023-11-21T11:57:50;17.60;32.30
939;DHT22;456;53.584;9.968;2023-11-21T12:00:34;17.60;32.10
939;DHT22;456;53.584;9.968;2023-11-21T12:03:03;17.60;32.10
939;DHT22;456;53.584;9.968;2023-11-21T12:05:31;17.60;32.20
939;DHT22;456;53.584;9.968;2023-11-21T12:08:09;17.60;32.30
939;DHT22;456;53.584;9.968;2023-11-21T12:10:38;17.60;32.10
939;DHT22;456;53.584;9.968;2023-11-21T12:13:11;17.60;32.20
939;DHT22;456;53.584;9.968;2023-11-21T12:15:38;17.60;32.10
939;DHT22;456;53.584;9.968;2023-11-21T12:18:06;17.60;32.10
939;DHT22;456;53.584;9.968;2023-11-21T12:20:32;17.60;32.10
939;DHT22;456;53.584;9.968;2023-11-21T12:23:00;17.60;32.30
939;DHT22;456;53.584;9.968;2023-11-21T12:25:30;17.50;32.00
939;DHT22;456;53.584;9.968;2023-11-21T12:28:00;17.60;32.10
939;DHT22;456;53.584;9.968;2023-11-21T12:30:30;17.50;32.10
939;DHT22;456;53.584;9.968;2023-11-21T12:32:58;17.50;32.10
939;DHT22;456;53.584;9.968;2023-11-21T12:35:25;17.50;32.00
939;DHT22;456;53.584;9.968;2023-11-21T12:37:52;17.50;32.10
939;DHT22;456;53.584;9.968;2023-11-21T12:40:19;17.50;32.10
939;DHT22;456;53.584;9.968;2023-11-21T12:42:46;17.60;32.20
939;DHT22;456;53.584;9.968;2023-11-21T12:50:11;17.50;32.00
939;DHT22;456;53.584;9.968;2023-11-21T12:52:50;17.50;32.00
939;DHT22;456;53.584;9.968;2023-11-21T12:55:21;17.50;32.00
939;DHT22;456;53.584;9.968;2023-11-21T12:57:53;17.50;32.00
939;DHT22;456;53.584;9.968;2023-11-21T13:00:32;17.50;32.00
939;DHT22;456;53.584;9.968;2023-11-21T13:02:59;17.50;31.90
939;DHT22;456;53.584;9.968;2023-11-21T13:05:27;17.50;32.10
939;DHT22;456;53.584;9.968;2023-11-21T13:07:56;17.50;32.00
939;DHT22;456;53.584;9.968;2023-11-21T13:10:25;17.50;32.10
939;DHT22;456;53.584;9.968;2023-11-21T13:12:52;17.50;32.00
939;DHT22;456;53.584;9.968;2023-11-21T13:15:19;17.50;32.10
939;DHT22;456;53.584;9.968;2023-11-21T13:17:45;17.50;32.10
939;DHT22;456;53.584;9.968;2023-11-21T13:20:11;17.50;32.00
939;DHT22;456;53.584;9.968;2023-11-21T13:22:48;17.50;32.00
939;DHT22;456;53.584;9.968;2023-11-21T13:25:15;17.50;32.00
939;DHT22;456;53.584;9.968;2023-11-21T13:27:46;17.50;32.00
939;DHT22;456;53.584;9.968;2023-11-21T13:30:15;17.50;32.10
939;DHT22;456;53.584;9.968;2023-11-21T13:32:44;17.50;32.00
939;DHT22;456;53.584;9.968;2023-11-21T13:35:12;17.50;31.90
939;DHT22;456;53.584;9.968;2023-11-21T13:37:48;17.50;32.00
939;DHT22;456;53.584;9.968;2023-11-21T13:40:15;17.50;32.70
939;DHT22;456;53.584;9.968;2023-11-21T13:42:45;17.50;32.10
939;DHT22;456;53.584;9.968;2023-11-21T13:45:11;17.50;32.00
939;DHT22;456;53.584;9.968;2023-11-21T13:47:38;17.50;32.00
939;DHT22;456;53.584;9.968;2023-11-21T13:50:04;17.50;31.90
939;DHT22;456;53.584;9.968;2023-11-21T13:52:39;17.50;31.90
939;DHT22;456;53.584;9.968;2023-11-21T13:55:05;17.50;32.10
939;DHT22;456;53.584;9.968;2023-11-21T13:57:37;17.50;32.00
939;DHT22;456;53.584;9.968;2023-11-21T14:00:04;17.50;32.00
939;DHT22;456;53.584;9.968;2023-11-21T14:02:36;17.50;31.90
939;DHT22;456;53.584;9.968;2023-11-21T14:05:07;17.50;32.00
939;DHT22;456;53.584;9.968;2023-11-21T14:07:35;17.50;32.00
939;DHT22;456;53.584;9.968;2023-11-21T14:10:04;17.50;31.90
939;DHT22;456;53.584;9.968;2023-11-21T14:12:33;17.50;31.90
939;DHT22;456;53.584;9.968;2023-11-21T14:14:59;17.50;31.90
939;DHT22;456;53.584;9.968;2023-11-21T14:17:25;17.50;31.90
939;DHT22;456;53.584;9.968;2023-11-21T14:19:53;17.50;31.80
939;DHT22;456;53.584;9.968;2023-11-21T14:22:20;17.50;31.80
939;DHT22;456;53.584;9.968;2023-11-21T14:24:46;17.50;31.80
939;DHT22;456;53.584;9.968;2023-11-21T14:27:13;17.50;31.80
939;DHT22;456;53.584;9.968;2023-11-21T14:29:38;17.50;32.10
939;DHT22;456;53.584;9.968;2023-11-21T14:32:08;17.50;32.20
939;DHT22;456;53.584;9.968;2023-11-21T14:34:34;17.60;32.30
939;DHT22;456;53.584;9.968;2023-11-21T14:37:00;17.60;32.40
939;DHT22;456;53.584;9.968;2023-11-21T14:39:28;17.70;32.40
939;DHT22;456;53.584;9.968;2023-11-21T14:41:54;17.70;32.30
939;DHT22;456;53.584;9.968;2023-11-21T14:44:24;17.70;32.40
939;DHT22;456;53.584;9.968;2023-11-21T14:46:53;17.80;32.40
939;DHT22;456;53.584;9.968;2023-11-21T14:49:22;17.80;32.40
939;DHT22;456;53.584;9.968;2023-11-21T14:51:53;17.80;32.30
939;DHT22;456;53.584;9.968;2023-11-21T14:54:28;17.80;32.40
939;DHT22;456;53.584;9.968;2023-11-21T14:57:07;17.80;32.30
939;DHT22;456;53.584;9.968;2023-11-21T14:59:42;17.80;32.30
939;DHT22;456;53.584;9.968;2023-11-21T15:02:08;17.80;32.30
939;DHT22;456;53.584;9.968;2023-11-21T15:04:42;17.80;32.40
939;DHT22;456;53.584;9.968;2023-11-21T15:07:08;17.80;32.30
939;DHT22;456;53.584;9.968;2023-11-21T15:09:34;17.90;32.50
939;DHT22;456;53.584;9.968;2023-11-21T15:12:00;17.90;32.50
939;DHT22;456;53.584;9.968;2023-11-21T15:14:46;17.90;32.40
939;DHT22;456;53.584;9.968;2023-11-21T15:17:15;17.90;32.50
939;DHT22;456;53.584;9.968;2023-11-21T15:19:48;17.90;32.50
939;DHT22;456;53.584;9.968;2023-11-21T15:22:13;17.90;32.50
939;DHT22;456;53.584;9.968;2023-11-21T15:24:41;17.90;32.40
939;DHT22;456;53.584;9.968;2023-11-21T15:27:09;17.90;32.40
939;DHT22;456;53.584;9.968;2023-11-21T15:29:36;17.90;32.50
939;DHT22;456;53.584;9.968;2023-11-21T15:32:02;17.90;32.40
939;DHT22;456;53.584;9.968;2023-11-21T15:34:27;17.90;32.40
939;DHT22;456;53.584;9.968;2023-11-21T15:36:55;17.90;32.40
939;DHT22;456;53.584;9.968;2023-11-21T15:39:21;17.90;32.40
939;DHT22;456;53.584;9.968;2023-11-21T15:41:54;18.00;32.50
939;DHT22;456;53.584;9.968;2023-11-21T15:44:19;17.90;32.30
939;DHT22;456;53.584;9.968;2023-11-21T15:46:45;17.90;32.40
939;DHT22;456;53.584;9.968;2023-11-21T15:49:11;17.90;32.30
939;DHT22;456;53.584;9.968;2023-11-21T15:51:44;17.90;32.40
939;DHT22;456;53.584;9.968;2023-11-21T15:54:25;17.90;32.30
939;DHT22;456;53.584;9.968;2023-11-21T15:56:52;17.90;32.30
939;DHT22;456;53.584;9.968;2023-11-21T15:59:18;17.90;32.30
939;DHT22;456;53.584;9.968;2023-11-21T16:01:43;18.00;32.40
939;DHT22;456;53.584;9.968;2023-11-21T16:04:13;17.90;32.20
939;DHT22;456;53.584;9.968;2023-11-21T16:06:43;18.00;32.40
939;DHT22;456;53.584;9.968;2023-11-21T16:09:10;18.00;32.40
939;DHT22;456;53.584;9.968;2023-11-21T16:11:49;17.90;32.20
939;DHT22;456;53.584;9.968;2023-11-21T16:14:19;18.00;32.30
939;DHT22;456;53.584;9.968;2023-11-21T16:16:50;18.00;32.30
939;DHT22;456;53.584;9.968;2023-11-21T16:19:16;18.00;32.30
939;DHT22;456;53.584;9.968;2023-11-21T16:21:42;18.00;32.30
939;DHT22;456;53.584;9.968;2023-11-21T16:24:07;18.00;32.30
939;DHT22;456;53.584;9.968;2023-11-21T16:26:33;18.00;32.30
939;DHT22;456;53.584;9.968;2023-11-21T16:29:01;18.00;32.30
939;DHT22;456;53.584;9.968;2023-11-21T16:31:27;18.00;32.30
939;DHT22;456;53.584;9.968;2023-11-21T16:33:53;18.00;32.30
939;DHT22;456;53.584;9.968;2023-11-21T16:36:19;18.00;32.40
939;DHT22;456;53.584;9.968;2023-11-21T16:38:45;18.00;32.30
939;DHT22;456;53.584;9.968;2023-11-21T16:41:10;18.00;32.20
939;DHT22;456;53.584;9.968;2023-11-21T16:43:37;18.00;32.30
939;DHT22;456;53.584;9.968;2023-11-21T16:46:02;18.00;32.20
939;DHT22;456;53.584;9.968;2023-11-21T16:48:28;18.00;32.20
939;DHT22;456;53.584;9.968;2023-11-21T16:50:53;18.00;32.20
939;DHT22;456;53.584;9.968;2023-11-21T16:53:19;18.00;32.10
939;DHT22;456;53.584;9.968;2023-11-21T16:55:45;18.00;32.20
939;DHT22;456;53.584;9.968;2023-11-21T16:58:10;18.00;32.10